sensor_id;sensor_type;location;lat;lon;timestamp;P1;durP1;ratioP1;P2;durP2;ratioP2
17725;SDS011;8983;53.156;17.960;2023-07-31T00:00:01;4.37;;;2.13;;
17725;SDS011;8983;53.156;17.960;2023-07-31T00:02:30;2.57;;;2.33;;
17725;SDS011;8983;53.156;17.960;2023-07-31T00:04:58;4.87;;;2.40;;
17725;SDS011;8983;53.156;17.960;2023-07-31T00:07:26;2.60;;;2.33;;
17725;SDS011;8983;53.156;17.960;2023-07-31T00:09:54;4.13;;;2.63;;
17725;SDS011;8983;53.156;17.960;2023-07-31T00:12:24;3.97;;;2.87;;
17725;SDS011;8983;53.156;17.960;2023-07-31T00:14:52;3.17;;;2.53;;
17725;SDS011;8983;53.156;17.960;2023-07-31T00:17:21;2.80;;;2.60;;
17725;SDS011;8983;53.156;17.960;2023-07-31T00:19:49;3.57;;;2.13;;
17725;SDS011;8983;53.156;17.960;2023-07-31T00:22:18;2.63;;;2.43;;
17725;SDS011;8983;53.156;17.960;2023-07-31T00:24:46;3.13;;;2.50;;
17725;SDS011;8983;53.156;17.960;2023-07-31T00:27:14;2.83;;;2.30;;
17725;SDS011;8983;53.156;17.960;2023-07-31T00:29:42;2.43;;;2.23;;
17725;SDS011;8983;53.156;17.960;2023-07-31T00:32:10;2.53;;;2.27;;
17725;SDS011;8983;53.156;17.960;2023-07-31T00:34:39;2.40;;;2.20;;
17725;SDS011;8983;53.156;17.960;2023-07-31T00:37:07;4.97;;;2.60;;
17725;SDS011;8983;53.156;17.960;2023-07-31T00:39:35;3.17;;;2.30;;
17725;SDS011;8983;53.156;17.960;2023-07-31T00:42:03;2.67;;;2.30;;
17725;SDS011;8983;53.156;17.960;2023-07-31T00:44:32;2.63;;;2.00;;
17725;SDS011;8983;53.156;17.960;2023-07-31T00:47:00;4.17;;;2.40;;
17725;SDS011;8983;53.156;17.960;2023-07-31T00:49:29;3.30;;;2.20;;
17725;SDS011;8983;53.156;17.960;2023-07-31T00:51:58;2.37;;;2.10;;
17725;SDS011;8983;53.156;17.960;2023-07-31T00:54:27;2.33;;;2.13;;
17725;SDS011;8983;53.156;17.960;2023-07-31T00:56:55;2.30;;;2.10;;
17725;SDS011;8983;53.156;17.960;2023-07-31T00:59:24;2.40;;;2.20;;
17725;SDS011;8983;53.156;17.960;2023-07-31T01:01:52;5.37;;;2.40;;
17725;SDS011;8983;53.156;17.960;2023-07-31T01:04:20;2.27;;;2.03;;
17725;SDS011;8983;53.156;17.960;2023-07-31T01:06:52;2.33;;;2.10;;
17725;SDS011;8983;53.156;17.960;2023-07-31T01:09:31;2.90;;;2.60;;
17725;SDS011;8983;53.156;17.960;2023-07-31T01:12:04;3.40;;;2.67;;
17725;SDS011;8983;53.156;17.960;2023-07-31T01:14:35;6.00;;;2.80;;
17725;SDS011;8983;53.156;17.960;2023-07-31T01:17:03;3.47;;;2.63;;
17725;SDS011;8983;53.156;17.960;2023-07-31T01:19:32;5.50;;;2.90;;
17725;SDS011;8983;53.156;17.960;2023-07-31T01:22:10;2.73;;;2.53;;
17725;SDS011;8983;53.156;17.960;2023-07-31T01:24:53;3.07;;;2.77;;
17725;SDS011;8983;53.156;17.960;2023-07-31T01:27:26;3.43;;;2.80;;
17725;SDS011;8983;53.156;17.960;2023-07-31T01:29:59;4.37;;;3.10;;
17725;SDS011;8983;53.156;17.960;2023-07-31T01:32:37;2.80;;;2.60;;
17725;SDS011;8983;53.156;17.960;2023-07-31T01:35:07;6.93;;;3.00;;
17725;SDS011;8983;53.156;17.960;2023-07-31T01:37:36;3.17;;;2.43;;
17725;SDS011;8983;53.156;17.960;2023-07-31T01:40:04;3.87;;;2.40;;
17725;SDS011;8983;53.156;17.960;2023-07-31T01:42:35;4.20;;;2.67;;
17725;SDS011;8983;53.156;17.960;2023-07-31T01:45:03;5.60;;;2.90;;
17725;SDS011;8983;53.156;17.960;2023-07-31T01:47:32;5.20;;;2.77;;
17725;SDS011;8983;53.156;17.960;2023-07-31T01:50:00;3.90;;;3.03;;
17725;SDS011;8983;53.156;17.960;2023-07-31T01:52:28;3.43;;;3.13;;
17725;SDS011;8983;53.156;17.960;2023-07-31T01:54:56;3.73;;;2.70;;
17725;SDS011;8983;53.156;17.960;2023-07-31T01:57:24;5.10;;;3.07;;
17725;SDS011;8983;53.156;17.960;2023-07-31T01:59:54;2.87;;;2.60;;
17725;SDS011;8983;53.156;17.960;2023-07-31T02:02:22;3.53;;;2.60;;
17725;SDS011;8983;53.156;17.960;2023-07-31T02:04:50;4.37;;;2.70;;
17725;SDS011;8983;53.156;17.960;2023-07-31T02:07:18;6.23;;;2.70;;
17725;SDS011;8983;53.156;17.960;2023-07-31T02:09:47;6.20;;;3.20;;
17725;SDS011;8983;53.156;17.960;2023-07-31T02:12:15;4.53;;;2.67;;
17725;SDS011;8983;53.156;17.960;2023-07-31T02:14:43;3.83;;;2.77;;
17725;SDS011;8983;53.156;17.960;2023-07-31T02:17:13;5.87;;;3.13;;
17725;SDS011;8983;53.156;17.960;2023-07-31T02:19:41;3.23;;;2.73;;
17725;SDS011;8983;53.156;17.960;2023-07-31T02:22:09;8.13;;;3.03;;
17725;SDS011;8983;53.156;17.960;2023-07-31T02:24:37;6.17;;;2.90;;
17725;SDS011;8983;53.156;17.960;2023-07-31T02:27:05;3.93;;;2.60;;
17725;SDS011;8983;53.156;17.960;2023-07-31T02:29:33;3.13;;;2.60;;
17725;SDS011;8983;53.156;17.960;2023-07-31T02:32:01;6.23;;;2.50;;
17725;SDS011;8983;53.156;17.960;2023-07-31T02:34:31;2.93;;;2.40;;
17725;SDS011;8983;53.156;17.960;2023-07-31T02:36:59;4.77;;;3.00;;
17725;SDS011;8983;53.156;17.960;2023-07-31T02:39:27;3.37;;;2.80;;
17725;SDS011;8983;53.156;17.960;2023-07-31T02:41:55;3.63;;;2.90;;
17725;SDS011;8983;53.156;17.960;2023-07-31T02:44:23;6.10;;;2.90;;
17725;SDS011;8983;53.156;17.960;2023-07-31T02:46:51;4.07;;;2.83;;
17725;SDS011;8983;53.156;17.960;2023-07-31T02:49:19;7.87;;;3.23;;
17725;SDS011;8983;53.156;17.960;2023-07-31T02:51:49;4.60;;;3.70;;
17725;SDS011;8983;53.156;17.960;2023-07-31T02:54:17;4.13;;;3.03;;
17725;SDS011;8983;53.156;17.960;2023-07-31T02:56:46;4.17;;;3.30;;
17725;SDS011;8983;53.156;17.960;2023-07-31T02:59:15;7.17;;;3.40;;
17725;SDS011;8983;53.156;17.960;2023-07-31T03:01:43;3.57;;;3.17;;
17725;SDS011;8983;53.156;17.960;2023-07-31T03:04:12;4.47;;;3.07;;
17725;SDS011;8983;53.156;17.960;2023-07-31T03:06:43;3.13;;;2.77;;
17725;SDS011;8983;53.156;17.960;2023-07-31T03:09:13;5.23;;;3.00;;
17725;SDS011;8983;53.156;17.960;2023-07-31T03:11:41;3.27;;;2.83;;
17725;SDS011;8983;53.156;17.960;2023-07-31T03:14:09;6.20;;;2.90;;
17725;SDS011;8983;53.156;17.960;2023-07-31T03:16:37;3.60;;;2.97;;
17725;SDS011;8983;53.156;17.960;2023-07-31T03:19:06;4.80;;;2.90;;
17725;SDS011;8983;53.156;17.960;2023-07-31T03:21:34;5.50;;;2.77;;
17725;SDS011;8983;53.156;17.960;2023-07-31T03:24:02;3.63;;;2.70;;
17725;SDS011;8983;53.156;17.960;2023-07-31T03:26:32;3.17;;;2.73;;
17725;SDS011;8983;53.156;17.960;2023-07-31T03:29:00;4.13;;;2.97;;
17725;SDS011;8983;53.156;17.960;2023-07-31T03:31:28;4.80;;;3.00;;
17725;SDS011;8983;53.156;17.960;2023-07-31T03:33:56;3.43;;;2.80;;
17725;SDS011;8983;53.156;17.960;2023-07-31T03:36:24;3.47;;;2.90;;
17725;SDS011;8983;53.156;17.960;2023-07-31T03:38:53;3.13;;;2.83;;
17725;SDS011;8983;53.156;17.960;2023-07-31T03:41:21;6.13;;;3.23;;
17725;SDS011;8983;53.156;17.960;2023-07-31T03:43:51;4.50;;;3.03;;
17725;SDS011;8983;53.156;17.960;2023-07-31T03:46:19;5.37;;;3.50;;
17725;SDS011;8983;53.156;17.960;2023-07-31T03:48:47;4.13;;;2.90;;
17725;SDS011;8983;53.156;17.960;2023-07-31T03:51:15;3.80;;;3.33;;
17725;SDS011;8983;53.156;17.960;2023-07-31T03:53:44;5.00;;;3.23;;
17725;SDS011;8983;53.156;17.960;2023-07-31T03:56:13;4.63;;;3.20;;
17725;SDS011;8983;53.156;17.960;2023-07-31T03:58:41;3.50;;;2.87;;
17725;SDS011;8983;53.156;17.960;2023-07-31T04:01:10;3.93;;;2.87;;
17725;SDS011;8983;53.156;17.960;2023-07-31T04:03:39;3.80;;;3.10;;
17725;SDS011;8983;53.156;17.960;2023-07-31T04:06:07;5.90;;;2.90;;
17725;SDS011;8983;53.156;17.960;2023-07-31T04:08:35;4.53;;;2.67;;
17725;SDS011;8983;53.156;17.960;2023-07-31T04:11:03;3.20;;;2.90;;
17725;SDS011;8983;53.156;17.960;2023-07-31T04:13:31;4.30;;;2.97;;
17725;SDS011;8983;53.156;17.960;2023-07-31T04:16:00;3.70;;;2.83;;
17725;SDS011;8983;53.156;17.960;2023-07-31T04:18:29;3.97;;;3.00;;
17725;SDS011;8983;53.156;17.960;2023-07-31T04:20:58;4.13;;;2.77;;
17725;SDS011;8983;53.156;17.960;2023-07-31T04:23:27;3.37;;;2.83;;
17725;SDS011;8983;53.156;17.960;2023-07-31T04:25:55;3.90;;;2.40;;
17725;SDS011;8983;53.156;17.960;2023-07-31T04:28:23;5.67;;;2.87;;
17725;SDS011;8983;53.156;17.960;2023-07-31T04:30:52;5.17;;;2.73;;
17725;SDS011;8983;53.156;17.960;2023-07-31T04:33:20;4.77;;;2.90;;
17725;SDS011;8983;53.156;17.960;2023-07-31T04:35:51;3.93;;;2.83;;
17725;SDS011;8983;53.156;17.960;2023-07-31T04:38:20;5.90;;;3.20;;
17725;SDS011;8983;53.156;17.960;2023-07-31T04:40:49;4.73;;;2.60;;
17725;SDS011;8983;53.156;17.960;2023-07-31T04:43:17;3.07;;;2.60;;
17725;SDS011;8983;53.156;17.960;2023-07-31T04:45:45;4.60;;;3.00;;
17725;SDS011;8983;53.156;17.960;2023-07-31T04:48:14;3.40;;;2.70;;
17725;SDS011;8983;53.156;17.960;2023-07-31T04:50:42;3.33;;;2.70;;
17725;SDS011;8983;53.156;17.960;2023-07-31T04:53:12;2.93;;;2.40;;
17725;SDS011;8983;53.156;17.960;2023-07-31T04:55:40;2.73;;;2.50;;
17725;SDS011;8983;53.156;17.960;2023-07-31T04:58:08;2.60;;;2.40;;
17725;SDS011;8983;53.156;17.960;2023-07-31T05:00:36;5.00;;;2.87;;
17725;SDS011;8983;53.156;17.960;2023-07-31T05:03:04;4.20;;;2.57;;
17725;SDS011;8983;53.156;17.960;2023-07-31T05:05:33;4.87;;;2.30;;
17725;SDS011;8983;53.156;17.960;2023-07-31T05:08:01;2.50;;;2.30;;
17725;SDS011;8983;53.156;17.960;2023-07-31T05:10:30;5.33;;;2.50;;
17725;SDS011;8983;53.156;17.960;2023-07-31T05:12:59;2.63;;;2.43;;
17725;SDS011;8983;53.156;17.960;2023-07-31T05:15:27;2.70;;;2.50;;
17725;SDS011;8983;53.156;17.960;2023-07-31T05:17:55;4.03;;;3.00;;
17725;SDS011;8983;53.156;17.960;2023-07-31T05:20:23;4.03;;;2.73;;
17725;SDS011;8983;53.156;17.960;2023-07-31T05:22:51;4.37;;;2.20;;
17725;SDS011;8983;53.156;17.960;2023-07-31T05:25:19;3.53;;;2.40;;
17725;SDS011;8983;53.156;17.960;2023-07-31T05:27:48;2.30;;;2.10;;
17725;SDS011;8983;53.156;17.960;2023-07-31T05:30:16;3.27;;;2.30;;
17725;SDS011;8983;53.156;17.960;2023-07-31T05:32:45;2.57;;;2.37;;
17725;SDS011;8983;53.156;17.960;2023-07-31T05:35:13;4.23;;;2.40;;
17725;SDS011;8983;53.156;17.960;2023-07-31T05:37:41;3.70;;;2.80;;
17725;SDS011;8983;53.156;17.960;2023-07-31T05:40:09;2.90;;;2.60;;
17725;SDS011;8983;53.156;17.960;2023-07-31T05:42:38;3.33;;;2.37;;
17725;SDS011;8983;53.156;17.960;2023-07-31T05:45:07;4.33;;;2.60;;
17725;SDS011;8983;53.156;17.960;2023-07-31T05:47:36;3.97;;;2.40;;
17725;SDS011;8983;53.156;17.960;2023-07-31T05:50:04;5.37;;;2.53;;
17725;SDS011;8983;53.156;17.960;2023-07-31T05:52:33;4.10;;;2.73;;
17725;SDS011;8983;53.156;17.960;2023-07-31T05:55:01;3.33;;;2.10;;
17725;SDS011;8983;53.156;17.960;2023-07-31T05:57:29;3.50;;;2.17;;
17725;SDS011;8983;53.156;17.960;2023-07-31T05:59:57;6.63;;;2.70;;
17725;SDS011;8983;53.156;17.960;2023-07-31T06:02:27;2.80;;;2.30;;
17725;SDS011;8983;53.156;17.960;2023-07-31T06:04:59;2.53;;;2.17;;
17725;SDS011;8983;53.156;17.960;2023-07-31T06:07:27;2.50;;;2.30;;
17725;SDS011;8983;53.156;17.960;2023-07-31T06:09:56;4.67;;;2.20;;
17725;SDS011;8983;53.156;17.960;2023-07-31T06:12:29;4.10;;;2.27;;
17725;SDS011;8983;53.156;17.960;2023-07-31T06:14:57;4.67;;;2.53;;
17725;SDS011;8983;53.156;17.960;2023-07-31T06:17:27;4.43;;;2.30;;
17725;SDS011;8983;53.156;17.960;2023-07-31T06:19:56;7.23;;;2.40;;
17725;SDS011;8983;53.156;17.960;2023-07-31T06:22:24;3.33;;;2.20;;
17725;SDS011;8983;53.156;17.960;2023-07-31T06:24:52;4.17;;;2.37;;
17725;SDS011;8983;53.156;17.960;2023-07-31T06:27:20;2.70;;;2.10;;
17725;SDS011;8983;53.156;17.960;2023-07-31T06:29:48;1.67;;;1.57;;
17725;SDS011;8983;53.156;17.960;2023-07-31T06:32:16;4.47;;;2.20;;
17725;SDS011;8983;53.156;17.960;2023-07-31T06:34:46;3.00;;;2.40;;
17725;SDS011;8983;53.156;17.960;2023-07-31T06:37:14;3.10;;;2.33;;
17725;SDS011;8983;53.156;17.960;2023-07-31T06:39:42;4.70;;;2.00;;
17725;SDS011;8983;53.156;17.960;2023-07-31T06:42:10;2.83;;;2.07;;
17725;SDS011;8983;53.156;17.960;2023-07-31T06:44:38;3.37;;;2.00;;
17725;SDS011;8983;53.156;17.960;2023-07-31T06:47:06;3.13;;;2.10;;
17725;SDS011;8983;53.156;17.960;2023-07-31T06:49:35;2.70;;;1.90;;
17725;SDS011;8983;53.156;17.960;2023-07-31T06:52:04;2.83;;;2.20;;
17725;SDS011;8983;53.156;17.960;2023-07-31T06:54:33;2.33;;;2.13;;
17725;SDS011;8983;53.156;17.960;2023-07-31T06:57:01;3.57;;;1.90;;
17725;SDS011;8983;53.156;17.960;2023-07-31T06:59:29;3.97;;;1.90;;
17725;SDS011;8983;53.156;17.960;2023-07-31T07:01:57;1.75;;;1.65;;
17725;SDS011;8983;53.156;17.960;2023-07-31T07:04:25;3.03;;;1.90;;
17725;SDS011;8983;53.156;17.960;2023-07-31T07:06:54;3.08;;;2.03;;
17725;SDS011;8983;53.156;17.960;2023-07-31T07:09:23;2.77;;;2.00;;
17725;SDS011;8983;53.156;17.960;2023-07-31T07:11:51;2.58;;;2.00;;
17725;SDS011;8983;53.156;17.960;2023-07-31T07:14:19;3.20;;;1.70;;
17725;SDS011;8983;53.156;17.960;2023-07-31T07:16:50;2.87;;;1.70;;
17725;SDS011;8983;53.156;17.960;2023-07-31T07:19:18;3.78;;;1.55;;
17725;SDS011;8983;53.156;17.960;2023-07-31T07:21:46;2.72;;;1.80;;
17725;SDS011;8983;53.156;17.960;2023-07-31T07:24:16;5.77;;;1.80;;
17725;SDS011;8983;53.156;17.960;2023-07-31T07:26:45;5.03;;;1.80;;
17725;SDS011;8983;53.156;17.960;2023-07-31T07:29:13;2.57;;;1.80;;
17725;SDS011;8983;53.156;17.960;2023-07-31T07:31:41;4.18;;;1.73;;
17725;SDS011;8983;53.156;17.960;2023-07-31T07:34:09;2.03;;;1.70;;
17725;SDS011;8983;53.156;17.960;2023-07-31T07:36:37;3.17;;;1.80;;
17725;SDS011;8983;53.156;17.960;2023-07-31T07:39:06;2.30;;;1.70;;
17725;SDS011;8983;53.156;17.960;2023-07-31T07:41:34;2.28;;;1.65;;
17725;SDS011;8983;53.156;17.960;2023-07-31T07:44:04;3.53;;;1.90;;
17725;SDS011;8983;53.156;17.960;2023-07-31T07:46:32;1.90;;;1.73;;
17725;SDS011;8983;53.156;17.960;2023-07-31T07:49:00;4.85;;;1.50;;
17725;SDS011;8983;53.156;17.960;2023-07-31T07:51:28;2.73;;;1.90;;
17725;SDS011;8983;53.156;17.960;2023-07-31T07:53:57;3.88;;;1.58;;
17725;SDS011;8983;53.156;17.960;2023-07-31T07:56:26;2.77;;;1.57;;
17725;SDS011;8983;53.156;17.960;2023-07-31T07:58:55;3.00;;;2.00;;
17725;SDS011;8983;53.156;17.960;2023-07-31T08:01:24;2.72;;;1.92;;
17725;SDS011;8983;53.156;17.960;2023-07-31T08:03:52;4.38;;;1.80;;
17725;SDS011;8983;53.156;17.960;2023-07-31T08:06:21;3.03;;;1.70;;
17725;SDS011;8983;53.156;17.960;2023-07-31T08:08:49;4.40;;;2.10;;
17725;SDS011;8983;53.156;17.960;2023-07-31T08:11:17;2.08;;;1.58;;
17725;SDS011;8983;53.156;17.960;2023-07-31T08:13:45;6.47;;;2.80;;
17725;SDS011;8983;53.156;17.960;2023-07-31T08:16:13;3.08;;;1.60;;
17725;SDS011;8983;53.156;17.960;2023-07-31T08:18:43;3.67;;;1.70;;
17725;SDS011;8983;53.156;17.960;2023-07-31T08:21:11;5.13;;;2.00;;
17725;SDS011;8983;53.156;17.960;2023-07-31T08:23:39;4.30;;;1.88;;
17725;SDS011;8983;53.156;17.960;2023-07-31T08:26:07;2.28;;;1.80;;
17725;SDS011;8983;53.156;17.960;2023-07-31T08:28:35;2.35;;;1.60;;
17725;SDS011;8983;53.156;17.960;2023-07-31T08:31:03;3.30;;;1.75;;
17725;SDS011;8983;53.156;17.960;2023-07-31T08:33:32;1.50;;;1.40;;
17725;SDS011;8983;53.156;17.960;2023-07-31T08:36:01;3.28;;;1.42;;
17725;SDS011;8983;53.156;17.960;2023-07-31T08:38:29;4.25;;;1.50;;
17725;SDS011;8983;53.156;17.960;2023-07-31T08:40:57;4.03;;;1.63;;
17725;SDS011;8983;53.156;17.960;2023-07-31T08:43:26;2.03;;;1.50;;
17725;SDS011;8983;53.156;17.960;2023-07-31T08:45:54;4.00;;;1.40;;
17725;SDS011;8983;53.156;17.960;2023-07-31T08:48:22;3.55;;;1.60;;
17725;SDS011;8983;53.156;17.960;2023-07-31T08:50:51;6.10;;;1.60;;
17725;SDS011;8983;53.156;17.960;2023-07-31T08:53:21;4.07;;;1.48;;
17725;SDS011;8983;53.156;17.960;2023-07-31T08:55:49;1.50;;;1.40;;
17725;SDS011;8983;53.156;17.960;2023-07-31T08:58:19;5.18;;;1.65;;
17725;SDS011;8983;53.156;17.960;2023-07-31T09:00:48;3.47;;;1.80;;
17725;SDS011;8983;53.156;17.960;2023-07-31T09:03:19;3.22;;;1.90;;
17725;SDS011;8983;53.156;17.960;2023-07-31T09:05:51;2.00;;;1.52;;
17725;SDS011;8983;53.156;17.960;2023-07-31T09:08:19;2.42;;;1.40;;
17725;SDS011;8983;53.156;17.960;2023-07-31T09:10:50;5.95;;;1.90;;
17725;SDS011;8983;53.156;17.960;2023-07-31T09:13:22;7.20;;;2.53;;
17725;SDS011;8983;53.156;17.960;2023-07-31T09:15:50;4.72;;;1.80;;
17725;SDS011;8983;53.156;17.960;2023-07-31T09:18:18;5.28;;;1.80;;
17725;SDS011;8983;53.156;17.960;2023-07-31T09:20:59;2.53;;;1.90;;
17725;SDS011;8983;53.156;17.960;2023-07-31T09:23:41;3.80;;;1.63;;
17725;SDS011;8983;53.156;17.960;2023-07-31T09:26:09;1.98;;;1.65;;
17725;SDS011;8983;53.156;17.960;2023-07-31T09:28:37;3.30;;;1.70;;
17725;SDS011;8983;53.156;17.960;2023-07-31T09:31:06;2.60;;;2.00;;
17725;SDS011;8983;53.156;17.960;2023-07-31T09:33:34;3.75;;;2.28;;
17725;SDS011;8983;53.156;17.960;2023-07-31T09:36:22;4.53;;;1.83;;
17725;SDS011;8983;53.156;17.960;2023-07-31T09:38:52;2.95;;;1.70;;
17725;SDS011;8983;53.156;17.960;2023-07-31T09:41:20;3.25;;;1.80;;
17725;SDS011;8983;53.156;17.960;2023-07-31T09:43:52;2.95;;;2.03;;
17725;SDS011;8983;53.156;17.960;2023-07-31T09:46:21;2.95;;;1.90;;
17725;SDS011;8983;53.156;17.960;2023-07-31T09:48:49;5.85;;;2.40;;
17725;SDS011;8983;53.156;17.960;2023-07-31T09:51:17;3.88;;;2.08;;
17725;SDS011;8983;53.156;17.960;2023-07-31T09:53:54;2.92;;;1.73;;
17725;SDS011;8983;53.156;17.960;2023-07-31T09:56:23;6.72;;;1.70;;
17725;SDS011;8983;53.156;17.960;2023-07-31T09:58:51;3.00;;;2.17;;
17725;SDS011;8983;53.156;17.960;2023-07-31T10:01:20;3.97;;;2.03;;
17725;SDS011;8983;53.156;17.960;2023-07-31T10:03:48;3.97;;;2.33;;
17725;SDS011;8983;53.156;17.960;2023-07-31T10:06:17;4.97;;;2.13;;
17725;SDS011;8983;53.156;17.960;2023-07-31T10:08:46;3.75;;;2.47;;
17725;SDS011;8983;53.156;17.960;2023-07-31T10:11:18;3.50;;;2.70;;
17725;SDS011;8983;53.156;17.960;2023-07-31T10:13:47;5.10;;;2.83;;
17725;SDS011;8983;53.156;17.960;2023-07-31T10:16:15;8.65;;;3.05;;
17725;SDS011;8983;53.156;17.960;2023-07-31T10:18:44;3.03;;;2.83;;
17725;SDS011;8983;53.156;17.960;2023-07-31T10:21:13;4.53;;;3.27;;
17725;SDS011;8983;53.156;17.960;2023-07-31T10:23:42;3.90;;;3.27;;
17725;SDS011;8983;53.156;17.960;2023-07-31T10:26:11;5.10;;;3.27;;
17725;SDS011;8983;53.156;17.960;2023-07-31T10:28:43;2.55;;;2.28;;
17725;SDS011;8983;53.156;17.960;2023-07-31T10:31:12;5.78;;;3.10;;
17725;SDS011;8983;53.156;17.960;2023-07-31T10:33:40;2.57;;;2.30;;
17725;SDS011;8983;53.156;17.960;2023-07-31T10:36:12;3.40;;;2.33;;
17725;SDS011;8983;53.156;17.960;2023-07-31T10:38:41;3.92;;;2.38;;
17725;SDS011;8983;53.156;17.960;2023-07-31T10:41:09;3.53;;;2.80;;
17725;SDS011;8983;53.156;17.960;2023-07-31T10:43:37;6.07;;;2.53;;
17725;SDS011;8983;53.156;17.960;2023-07-31T10:46:07;5.78;;;2.80;;
17725;SDS011;8983;53.156;17.960;2023-07-31T10:48:36;5.38;;;2.83;;
17725;SDS011;8983;53.156;17.960;2023-07-31T10:51:07;4.30;;;2.72;;
17725;SDS011;8983;53.156;17.960;2023-07-31T10:53:37;3.13;;;2.80;;
17725;SDS011;8983;53.156;17.960;2023-07-31T10:56:06;3.95;;;2.50;;
17725;SDS011;8983;53.156;17.960;2023-07-31T10:58:36;4.53;;;2.38;;
17725;SDS011;8983;53.156;17.960;2023-07-31T11:01:05;4.00;;;2.40;;
17725;SDS011;8983;53.156;17.960;2023-07-31T11:03:45;5.72;;;2.25;;
17725;SDS011;8983;53.156;17.960;2023-07-31T11:06:15;5.88;;;2.38;;
17725;SDS011;8983;53.156;17.960;2023-07-31T11:08:45;4.10;;;2.38;;
17725;SDS011;8983;53.156;17.960;2023-07-31T11:11:15;3.50;;;2.03;;
17725;SDS011;8983;53.156;17.960;2023-07-31T11:13:45;2.47;;;1.80;;
17725;SDS011;8983;53.156;17.960;2023-07-31T11:16:16;4.53;;;2.17;;
17725;SDS011;8983;53.156;17.960;2023-07-31T11:18:47;4.07;;;2.00;;
17725;SDS011;8983;53.156;17.960;2023-07-31T11:21:16;2.53;;;2.00;;
17725;SDS011;8983;53.156;17.960;2023-07-31T11:23:46;1.75;;;1.48;;
17725;SDS011;8983;53.156;17.960;2023-07-31T11:26:14;4.70;;;2.00;;
17725;SDS011;8983;53.156;17.960;2023-07-31T11:28:43;3.53;;;2.00;;
17725;SDS011;8983;53.156;17.960;2023-07-31T11:31:13;3.53;;;1.67;;
17725;SDS011;8983;53.156;17.960;2023-07-31T11:33:42;4.10;;;1.92;;
17725;SDS011;8983;53.156;17.960;2023-07-31T11:36:15;3.03;;;2.08;;
17725;SDS011;8983;53.156;17.960;2023-07-31T11:38:44;3.33;;;2.22;;
17725;SDS011;8983;53.156;17.960;2023-07-31T11:41:13;3.53;;;2.13;;
17725;SDS011;8983;53.156;17.960;2023-07-31T11:43:42;3.27;;;2.83;;
17725;SDS011;8983;53.156;17.960;2023-07-31T11:46:10;3.87;;;2.40;;
17725;SDS011;8983;53.156;17.960;2023-07-31T11:48:39;2.53;;;2.10;;
17725;SDS011;8983;53.156;17.960;2023-07-31T11:51:08;5.07;;;2.50;;
17725;SDS011;8983;53.156;17.960;2023-07-31T11:53:40;5.47;;;2.13;;
17725;SDS011;8983;53.156;17.960;2023-07-31T11:56:11;3.67;;;1.98;;
17725;SDS011;8983;53.156;17.960;2023-07-31T11:58:41;2.92;;;2.15;;
17725;SDS011;8983;53.156;17.960;2023-07-31T12:01:13;2.17;;;1.50;;
17725;SDS011;8983;53.156;17.960;2023-07-31T12:03:43;1.45;;;1.35;;
17725;SDS011;8983;53.156;17.960;2023-07-31T12:06:12;2.63;;;1.40;;
17725;SDS011;8983;53.156;17.960;2023-07-31T12:08:42;3.72;;;2.08;;
17725;SDS011;8983;53.156;17.960;2023-07-31T12:11:10;2.95;;;1.65;;
17725;SDS011;8983;53.156;17.960;2023-07-31T12:13:39;1.73;;;1.58;;
17725;SDS011;8983;53.156;17.960;2023-07-31T12:16:07;2.65;;;1.40;;
17725;SDS011;8983;53.156;17.960;2023-07-31T12:18:36;2.45;;;1.80;;
17725;SDS011;8983;53.156;17.960;2023-07-31T12:21:06;1.52;;;1.42;;
17725;SDS011;8983;53.156;17.960;2023-07-31T12:23:35;2.35;;;1.70;;
17725;SDS011;8983;53.156;17.960;2023-07-31T12:26:06;2.35;;;1.75;;
17725;SDS011;8983;53.156;17.960;2023-07-31T12:28:35;2.50;;;1.73;;
17725;SDS011;8983;53.156;17.960;2023-07-31T12:31:05;2.85;;;1.75;;
17725;SDS011;8983;53.156;17.960;2023-07-31T12:33:33;2.40;;;1.85;;
17725;SDS011;8983;53.156;17.960;2023-07-31T12:36:03;1.63;;;1.52;;
17725;SDS011;8983;53.156;17.960;2023-07-31T12:38:33;1.98;;;1.77;;
17725;SDS011;8983;53.156;17.960;2023-07-31T12:41:02;2.95;;;1.90;;
17725;SDS011;8983;53.156;17.960;2023-07-31T12:43:31;1.55;;;1.45;;
17725;SDS011;8983;53.156;17.960;2023-07-31T12:45:59;3.28;;;1.90;;
17725;SDS011;8983;53.156;17.960;2023-07-31T12:48:28;2.60;;;2.03;;
17725;SDS011;8983;53.156;17.960;2023-07-31T12:50:56;1.92;;;1.77;;
17725;SDS011;8983;53.156;17.960;2023-07-31T12:53:24;2.10;;;1.67;;
17725;SDS011;8983;53.156;17.960;2023-07-31T12:55:53;2.10;;;1.90;;
17725;SDS011;8983;53.156;17.960;2023-07-31T12:58:22;1.97;;;1.87;;
17725;SDS011;8983;53.156;17.960;2023-07-31T13:00:51;2.93;;;1.70;;
17725;SDS011;8983;53.156;17.960;2023-07-31T13:03:19;2.37;;;1.90;;
17725;SDS011;8983;53.156;17.960;2023-07-31T13:05:48;3.73;;;2.20;;
17725;SDS011;8983;53.156;17.960;2023-07-31T13:08:16;2.53;;;1.90;;
17725;SDS011;8983;53.156;17.960;2023-07-31T13:10:44;2.87;;;2.07;;
17725;SDS011;8983;53.156;17.960;2023-07-31T13:13:13;2.93;;;2.00;;
17725;SDS011;8983;53.156;17.960;2023-07-31T13:15:41;6.93;;;2.40;;
17725;SDS011;8983;53.156;17.960;2023-07-31T13:18:10;2.43;;;1.83;;
17725;SDS011;8983;53.156;17.960;2023-07-31T13:20:38;2.80;;;2.10;;
17725;SDS011;8983;53.156;17.960;2023-07-31T13:23:06;2.20;;;1.93;;
17725;SDS011;8983;53.156;17.960;2023-07-31T13:25:35;2.40;;;2.20;;
17725;SDS011;8983;53.156;17.960;2023-07-31T13:28:03;2.40;;;2.20;;
17725;SDS011;8983;53.156;17.960;2023-07-31T13:30:31;5.13;;;2.10;;
17725;SDS011;8983;53.156;17.960;2023-07-31T13:33:00;3.07;;;2.10;;
17725;SDS011;8983;53.156;17.960;2023-07-31T13:35:30;2.20;;;2.00;;
17725;SDS011;8983;53.156;17.960;2023-07-31T13:37:58;2.30;;;2.10;;
17725;SDS011;8983;53.156;17.960;2023-07-31T13:40:26;2.17;;;1.97;;
17725;SDS011;8983;53.156;17.960;2023-07-31T13:42:54;2.55;;;2.13;;
17725;SDS011;8983;53.156;17.960;2023-07-31T13:45:22;2.73;;;2.10;;
17725;SDS011;8983;53.156;17.960;2023-07-31T13:47:51;3.22;;;2.45;;
17725;SDS011;8983;53.156;17.960;2023-07-31T13:50:19;1.87;;;1.67;;
17725;SDS011;8983;53.156;17.960;2023-07-31T13:52:50;4.20;;;2.97;;
17725;SDS011;8983;53.156;17.960;2023-07-31T13:55:18;3.67;;;2.57;;
17725;SDS011;8983;53.156;17.960;2023-07-31T13:57:47;2.80;;;2.50;;
17725;SDS011;8983;53.156;17.960;2023-07-31T14:00:15;3.93;;;2.40;;
17725;SDS011;8983;53.156;17.960;2023-07-31T14:02:43;3.77;;;2.30;;
17725;SDS011;8983;53.156;17.960;2023-07-31T14:05:11;2.97;;;2.20;;
17725;SDS011;8983;53.156;17.960;2023-07-31T14:07:39;4.33;;;2.30;;
17725;SDS011;8983;53.156;17.960;2023-07-31T14:10:09;2.30;;;2.00;;
17725;SDS011;8983;53.156;17.960;2023-07-31T14:12:37;2.20;;;2.00;;
17725;SDS011;8983;53.156;17.960;2023-07-31T14:15:08;4.72;;;2.20;;
17725;SDS011;8983;53.156;17.960;2023-07-31T14:17:37;3.40;;;2.72;;
17725;SDS011;8983;53.156;17.960;2023-07-31T14:20:06;2.43;;;2.10;;
17725;SDS011;8983;53.156;17.960;2023-07-31T14:22:35;5.67;;;2.80;;
17725;SDS011;8983;53.156;17.960;2023-07-31T14:25:04;2.30;;;2.10;;
17725;SDS011;8983;53.156;17.960;2023-07-31T14:27:34;2.10;;;1.90;;
17725;SDS011;8983;53.156;17.960;2023-07-31T14:30:02;4.43;;;2.47;;
17725;SDS011;8983;53.156;17.960;2023-07-31T14:32:31;4.00;;;2.70;;
17725;SDS011;8983;53.156;17.960;2023-07-31T14:34:59;4.47;;;3.35;;
17725;SDS011;8983;53.156;17.960;2023-07-31T14:37:27;2.03;;;1.80;;
17725;SDS011;8983;53.156;17.960;2023-07-31T14:40:05;2.28;;;2.03;;
17725;SDS011;8983;53.156;17.960;2023-07-31T14:42:35;2.58;;;2.25;;
17725;SDS011;8983;53.156;17.960;2023-07-31T14:45:03;4.43;;;2.50;;
17725;SDS011;8983;53.156;17.960;2023-07-31T14:47:32;5.82;;;3.15;;
17725;SDS011;8983;53.156;17.960;2023-07-31T14:50:01;6.18;;;3.65;;
17725;SDS011;8983;53.156;17.960;2023-07-31T14:52:29;4.90;;;3.38;;
17725;SDS011;8983;53.156;17.960;2023-07-31T14:54:58;4.38;;;2.67;;
17725;SDS011;8983;53.156;17.960;2023-07-31T14:57:26;4.30;;;2.37;;